ESND

Sveg Airport

Sweden
METAR ESND 231350Z AUTO 08005KT 9999 -SN FEW006/// BKN010/// BKN013/// M08/M10 Q1030
Observed Flight Rules
Feb-23 @ 13:50 UTC (44 minutes ago) Marginal Visual Flight Rules
Wind Visibility Clouds Conditions
80° at 5 knots 10,000+ meters
  • Few at 600' AGL
  • Broken at 1,000' AGL
  • Broken at 1,300' AGL
  • Light Snow
Temperatures Readings
Current -8°C / 18°F
Dewpoint -10°C / 14°F
Humidity 86%
Altimeter 30.41" Hg
Pressure 1030 hPa
Elevation 359
METAR ESND 231350Z AUTO 08005KT 9999 -SN FEW006/// BKN010/// BKN013/// M08/M10 Q1030
Observed Flight Rules
Feb-23 @ 13:50 UTC
(44 minutes ago)
MVFR
Wind Visibility
80° at 5 knots 10,000+ meters
Clouds
  • Few at 600' AGL
  • Broken at 1,000' AGL
  • Broken at 1,300' AGL
Conditions
  • Light Snow
Temperature Dewpoint
-8°C / 18°F -10°C / 14°F
Humidity Altimeter Pressure
86% 30.41" Hg 1030 hPa